Time;durP1;ratioP1;P1;durP2;ratioP2;P2;SDS_P1;SDS_P2;PMS_P1;PMS_P2;Temp;Humidity;BMP_temperature;BMP_pressure;BME280_temperature;BME280_humidity;BME280_pressure;Samples;Min_cycle;Max_cycle;Signal;HPM_P1;HPM_P2
2023/03/31 00:00:48;;;;;;;2.22;1.67;;;13.80;85.30;;;;;;4988043;28;20035;-73
2023/03/31 00:03:20;;;;;;;7.50;2.13;;;;;;;;;;4989072;28;20033;-73
2023/03/31 00:05:53;;;;;;;8.82;2.05;;;14.00;85.20;;;;;;4989484;28;20026;-73
2023/03/31 00:08:20;;;;;;;9.90;1.70;;;13.70;84.90;;;;;;4987819;28;20373;-73
2023/03/31 00:10:46;;;;;;;3.50;1.92;;;13.80;75.80;;;;;;4989683;28;20049;-74
2023/03/31 00:13:12;;;;;;;4.57;1.77;;;;;;;;;;4989210;28;20026;-74
2023/03/31 00:15:39;;;;;;;4.03;1.80;;;14.00;63.80;;;;;;5011295;28;20022;-73
2023/03/31 00:18:05;;;;;;;5.53;1.58;;;;;;;;;;4984736;28;20074;-73
2023/03/31 00:20:32;;;;;;;2.80;1.50;;;;;;;;;;4989223;28;20447;-73
2023/03/31 00:23:00;;;;;;;5.38;1.73;;;;;;;;;;4988949;28;20124;-74
2023/03/31 00:25:26;;;;;;;2.38;1.45;;;14.10;62.70;;;;;;4989414;28;20049;-74
2023/03/31 00:27:52;;;;;;;1.77;1.40;;;;;;;;;;4989404;28;20034;-73
2023/03/31 00:30:19;;;;;;;4.68;2.20;;;;;;;;;;4989030;28;20045;-74
2023/03/31 00:32:45;;;;;;;1.63;1.50;;;;;;;;;;4989292;28;20546;-73
2023/03/31 00:35:11;;;;;;;7.45;2.08;;;;;;;;;;4989231;28;20077;-74
2023/03/31 00:37:37;;;;;;;5.78;1.70;;;;;;;;;;4989058;28;20033;-74
2023/03/31 00:40:10;;;;;;;1.52;1.42;;;14.70;81.90;;;;;;4988766;28;20035;-74
2023/03/31 00:42:40;;;;;;;4.35;2.92;;;14.40;61.20;;;;;;4988908;28;20030;-73
2023/03/31 00:45:15;;;;;;;2.67;1.25;;;14.50;60.80;;;;;;4989409;28;20113;-74
2023/03/31 00:47:50;;;;;;;3.95;1.85;;;14.40;80.80;;;;;;4992922;28;20041;-73
2023/03/31 00:50:27;;;;;;;7.63;1.90;;;14.70;80.60;;;;;;4993069;28;20034;-73
2023/03/31 00:52:57;;;;;;;7.40;1.50;;;14.50;80.60;;;;;;4981200;28;20032;-73
2023/03/31 00:55:29;;;;;;;2.75;1.83;;;14.60;59.60;;;;;;4992780;28;20113;-73
2023/03/31 00:57:56;;;;;;;5.90;1.50;;;14.50;80.30;;;;;;4992723;28;20029;-74
2023/03/31 01:00:23;;;;;;;1.45;1.08;;;;;;;;;;4992745;28;20124;-73
2023/03/31 01:02:57;;;;;;;11.30;1.98;;;14.30;61.40;;;;;;4993210;28;20376;-74
2023/03/31 01:05:43;;;;;;;3.25;1.70;;;14.90;79.70;;;;;;4992242;28;20053;-73
2023/03/31 01:08:09;;;;;;;2.85;1.90;;;14.50;71.20;;;;;;5011976;28;20110;-73
2023/03/31 01:10:47;;;;;;;5.50;2.13;;;14.80;80.20;;;;;;4991947;28;20031;-73
2023/03/31 01:13:14;;;;;;;1.50;1.38;;;14.60;72.50;;;;;;4992379;28;20026;-73
2023/03/31 01:15:42;;;;;;;11.27;2.25;;;14.60;59.40;;;;;;4992840;28;20022;-73
2023/03/31 01:18:10;;;;;;;2.95;1.77;;;14.70;59.60;;;;;;4992009;28;20042;-73
2023/03/31 01:20:54;;;;;;;;;;;14.70;60.10;;;;;;4992820;28;20038;-73
2023/03/31 01:23:57;;;;;;;4.72;1.67;;;14.40;60.00;;;;;;4987160;28;19910;-73
2023/03/31 01:26:52;;;;;;;4.05;1.38;;;14.20;60.60;;;;;;4992289;28;20034;-73
2023/03/31 01:29:26;;;;;;;2.38;1.10;;;14.30;82.10;;;;;;4992500;28;20027;-74
2023/03/31 01:32:22;;;;;;;2.15;1.95;;;14.20;61.10;;;;;;5011342;28;20037;-73
2023/03/31 01:34:48;;;;;;;4.97;1.58;;;;;;;;;;4991601;28;20026;-73
2023/03/31 01:37:46;;;;;;;1.63;1.10;;;14.50;60.40;;;;;;4991602;28;20034;-73
2023/03/31 01:40:23;;;;;;;5.05;1.60;;;15.30;80.50;;;;;;4991736;28;20034;-73
2023/03/31 01:43:02;;;;;;;;;;;14.90;59.70;;;;;;4992842;28;20534;-73
2023/03/31 01:45:48;;;;;;;3.58;1.63;;;15.10;58.40;;;;;;4991939;28;19906;-73
2023/03/31 01:48:20;;;;;;;3.67;1.77;;;15.20;57.80;;;;;;4991524;28;20033;-73
2023/03/31 01:50:46;;;;;;;12.75;2.15;;;;;;;;;;4991950;28;20044;-74
2023/03/31 01:53:16;;;;;;;3.28;1.20;;;15.10;78.00;;;;;;4991769;28;20023;-74
2023/03/31 01:56:06;;;;;;;3.47;2.30;;;15.50;77.80;;;;;;4991513;28;20531;-73
2023/03/31 01:58:38;;;;;;;1.90;1.50;;;15.40;56.90;;;;;;4991083;28;20030;-73
2023/03/31 02:01:15;;;;;;;3.15;1.38;;;15.40;77.30;;;;;;4991888;28;20053;-73
2023/03/31 02:03:47;;;;;;;;;;;15.60;56.60;;;;;;4991450;28;20030;-73
2023/03/31 02:06:18;;;;;;;2.58;2.15;;;15.70;56.20;;;;;;4992073;28;19980;-73
2023/03/31 02:08:49;;;;;;;5.22;1.70;;;15.90;55.60;;;;;;4991430;28;20026;-73
2023/03/31 02:11:15;;;;;;;4.90;1.63;;;16.00;68.40;;;;;;4991172;28;20407;-73
2023/03/31 02:13:44;;;;;;;8.23;3.05;;;15.90;55.70;;;;;;4991496;28;20084;-73
2023/03/31 02:16:17;;;;;;;11.05;1.83;;;15.90;55.60;;;;;;4991541;28;20026;-74
2023/03/31 02:18:45;;;;;;;1.27;1.15;;;16.00;76.00;;;;;;4990445;28;20027;-74
2023/03/31 02:21:13;;;;;;;3.13;1.63;;;15.80;56.00;;;;;;4991700;28;20034;-73
2023/03/31 02:23:40;;;;;;;3.42;1.13;;;;;;;;;;4990616;28;20037;-72
2023/03/31 02:26:16;;;;;;;2.10;1.40;;;15.90;76.00;;;;;;4991325;28;20084;-73
2023/03/31 02:28:42;;;;;;;2.70;1.90;;;16.00;55.80;;;;;;4978858;28;20821;-73
2023/03/31 02:31:48;;;;;;;3.60;1.48;;;15.90;56.00;;;;;;4991221;28;20070;-73
2023/03/31 02:34:14;;;;;;;6.22;1.67;;;15.80;76.50;;;;;;4990905;28;20026;-73
2023/03/31 02:36:42;;;;;;;4.45;2.22;;;16.00;76.00;;;;;;4990821;28;20023;-73
2023/03/31 02:39:13;;;;;;;5.55;2.00;;;16.10;55.60;;;;;;4991252;28;20042;-73
2023/03/31 02:41:39;;;;;;;1.45;1.35;;;16.10;76.00;;;;;;4991093;28;20487;-74
2023/03/31 02:44:05;;;;;;;5.28;1.65;;;;;;;;;;4991438;28;20033;-73
2023/03/31 02:46:31;;;;;;;8.45;1.70;;;16.00;72.90;;;;;;4990760;28;20420;-74
2023/03/31 02:49:01;;;;;;;3.50;1.63;;;16.20;56.00;;;;;;4990924;28;20034;-73
2023/03/31 02:51:57;;;;;;;2.83;1.65;;;16.30;55.70;;;;;;4991049;28;20096;-73
2023/03/31 02:54:32;;;;;;;6.65;1.60;;;17.20;56.10;;;;;;4990019;28;20029;-74
2023/03/31 02:57:22;;;;;;;7.97;1.75;;;16.50;55.60;;;;;;4990904;28;20093;-73
2023/03/31 03:00:07;;;;;;;4.03;2.20;;;16.70;55.10;;;;;;4990825;28;20034;-74
2023/03/31 03:03:20;;;;;;;4.90;2.60;;;16.80;54.80;;;;;;4990873;28;20033;-76
2023/03/31 03:05:53;;;;;;;1.70;1.27;;;16.90;75.10;;;;;;4992139;28;20113;-73
2023/03/31 03:08:55;;;;;;;1.50;1.23;;;16.70;75.50;;;;;;4990369;28;20077;-73
2023/03/31 03:11:44;;;;;;;3.25;1.55;;;16.90;59.90;;;;;;4990740;28;20125;-73
2023/03/31 03:14:10;;;;;;;2.13;1.65;;;;;;;;;;4990030;28;20517;-73
2023/03/31 03:16:41;;;;;;;5.40;1.60;;;16.80;54.80;;;;;;4989682;28;20113;-73
2023/03/31 03:19:07;;;;;;;4.97;1.73;;;16.70;66.40;;;;;;4990349;28;20030;-73
2023/03/31 03:21:33;;;;;;;5.75;1.85;;;16.70;55.30;;;;;;4989923;28;20395;-73
2023/03/31 03:24:00;;;;;;;2.78;1.15;;;;;;;;;;4990485;28;20145;-75
2023/03/31 03:26:29;;;;;;;4.63;2.40;;;16.60;76.80;;;;;;4990185;28;20022;-73
2023/03/31 03:28:55;;;;;;;2.33;1.60;;;16.30;72.10;;;;;;4990763;28;20105;-73
2023/03/31 03:31:22;;;;;;;5.07;2.22;;;16.50;76.30;;;;;;4989699;28;20500;-73
2023/03/31 03:33:48;;;;;;;3.75;1.73;;;;;;;;;;4989401;28;20018;-73
2023/03/31 03:36:15;;;;;;;5.90;1.33;;;16.60;56.10;;;;;;4989729;28;20049;-73
2023/03/31 03:38:41;;;;;;;11.13;2.83;;;;;;;;;;4989871;28;20057;-73
2023/03/31 03:41:07;;;;;;;7.47;1.77;;;14.90;55.70;;;;;;4989860;28;20035;-73
2023/03/31 03:43:33;;;;;;;1.95;1.40;;;16.60;65.70;;;;;;4989842;28;20034;-72
2023/03/31 03:45:59;;;;;;;5.82;2.63;;;;;;;;;;4988006;28;20058;-73
2023/03/31 03:48:25;;;;;;;9.63;2.65;;;16.90;58.40;;;;;;4988351;28;20028;-73
2023/03/31 03:50:53;;;;;;;10.18;3.17;;;;;;;;;;4988704;28;20121;-73
2023/03/31 03:53:18;;;;;;;;;;;16.60;56.40;;;;;;4990240;28;20026;-73
2023/03/31 03:55:47;;;;;;;6.72;2.85;;;;;;;;;;4989630;28;19917;-73
2023/03/31 03:58:13;;;;;;;6.93;3.85;;;16.30;77.30;;;;;;4989958;28;20058;-73
2023/03/31 04:00:39;;;;;;;4.68;2.95;;;;;;;;;;4989191;28;20475;-73
2023/03/31 04:03:05;;;;;;;7.07;3.95;;;16.50;67.90;;;;;;4989691;28;20026;-74
2023/03/31 04:05:30;;;;;;;5.75;3.40;;;16.30;62.30;;;;;;4988925;28;20033;-73
2023/03/31 04:07:56;;;;;;;10.80;3.85;;;16.30;78.00;;;;;;4989442;28;20106;-72
2023/03/31 04:10:21;;;;;;;6.40;3.30;;;16.10;70.50;;;;;;5003902;28;20511;-73
2023/03/31 04:12:47;;;;;;;7.03;3.28;;;16.30;67.30;;;;;;4989611;28;20026;-73
2023/03/31 04:15:13;;;;;;;10.98;4.00;;;;;;;;;;4988357;28;20058;-72
2023/03/31 04:17:39;;;;;;;8.65;4.82;;;;;;;;;;4989580;28;20443;-73
2023/03/31 04:20:08;;;;;;;14.65;5.53;;;16.00;58.80;;;;;;4987953;28;20114;-73
2023/03/31 04:22:40;;;;;;;7.28;4.38;;;16.00;59.00;;;;;;4983128;28;20495;-73
2023/03/31 04:25:09;;;;;;;6.82;4.07;;;15.80;63.80;;;;;;4988615;28;20036;-73
2023/03/31 04:27:35;;;;;;;6.72;4.72;;;;;;;;;;4988621;28;20045;-73
2023/03/31 04:30:01;;;;;;;9.18;4.55;;;15.70;79.50;;;;;;4987312;28;20500;-72
2023/03/31 04:32:31;;;;;;;11.77;5.13;;;;;;;;;;4989226;28;20041;-73
2023/03/31 04:35:02;;;;;;;9.88;4.95;;;16.10;67.70;;;;;;4988891;28;20088;-73
2023/03/31 04:37:33;;;;;;;8.82;4.40;;;16.00;59.70;;;;;;4989670;28;20034;-73
2023/03/31 04:40:03;;;;;;;7.75;4.28;;;15.90;79.70;;;;;;4988983;28;20034;-72
2023/03/31 04:42:29;;;;;;;8.68;3.45;;;;;;;;;;4989180;28;20033;-73
2023/03/31 04:44:54;;;;;;;9.13;3.70;;;15.80;74.00;;;;;;4988243;28;20027;-73
2023/03/31 04:47:20;;;;;;;5.40;3.42;;;;;;;;;;4989113;28;20058;-73
2023/03/31 04:49:46;;;;;;;12.07;4.82;;;;;;;;;;4988901;28;20062;-73
2023/03/31 04:52:12;;;;;;;8.50;3.58;;;;;;;;;;4989033;28;20388;-72
2023/03/31 04:54:38;;;;;;;9.07;4.35;;;;;;;;;;4988817;28;20054;-73
2023/03/31 04:57:04;;;;;;;5.75;4.38;;;;;;;;;;4984118;28;20038;-73
2023/03/31 04:59:30;;;;;;;9.38;3.95;;;;;;;;;;4988589;28;20022;-73
2023/03/31 05:01:56;;;;;;;6.53;3.72;;;16.00;72.10;;;;;;4989064;28;20475;-72
2023/03/31 05:04:22;;;;;;;4.43;3.13;;;;;;;;;;4988348;28;20030;-73
2023/03/31 05:06:48;;;;;;;10.55;3.72;;;;;;;;;;4984311;28;20041;-72
2023/03/31 05:09:14;;;;;;;6.28;4.75;;;;;;;;;;4982771;28;20062;-74
2023/03/31 05:11:40;;;;;;;7.93;2.90;;;;;;;;;;4987095;28;20479;-73
2023/03/31 05:14:06;;;;;;;6.97;3.38;;;;;;;;;;4989016;28;20114;-73
2023/03/31 05:16:32;;;;;;;6.38;3.70;;;;;;;;;;4988166;28;20044;-73
2023/03/31 05:18:58;;;;;;;5.75;3.55;;;;;;;;;;4982315;28;20026;-73
2023/03/31 05:21:25;;;;;;;7.38;4.07;;;;;;;;;;4988527;28;20042;-73
2023/03/31 05:23:51;;;;;;;13.57;3.47;;;;;;;;;;4986285;28;20026;-73
2023/03/31 05:26:17;;;;;;;16.98;4.15;;;15.80;77.80;;;;;;4985989;28;20339;-73
2023/03/31 05:28:43;;;;;;;8.10;4.20;;;;;;;;;;4982546;28;20030;-73
2023/03/31 05:31:10;;;;;;;8.75;4.47;;;16.10;66.90;;;;;;4988019;28;20096;-73
2023/03/31 05:33:40;;;;;;;4.03;2.83;;;16.10;77.60;;;;;;4983577;28;20042;-75
2023/03/31 05:36:11;;;;;;;8.52;3.17;;;15.90;77.10;;;;;;4995443;28;20113;-75
2023/03/31 05:38:38;;;;;;;11.30;4.05;;;;;;;;;;4979036;28;20041;-73
2023/03/31 05:41:03;;;;;;;8.70;4.70;;;15.80;76.60;;;;;;4989199;28;20053;-76
2023/03/31 05:43:29;;;;;;;5.57;4.00;;;;;;;;;;4990551;28;20675;-72
2023/03/31 05:45:55;;;;;;;8.52;3.65;;;15.70;76.60;;;;;;4985345;28;20133;-72
2023/03/31 05:48:20;;;;;;;9.18;3.67;;;15.80;66.20;;;;;;4986835;28;20165;-72
2023/03/31 05:50:46;;;;;;;9.77;6.18;;;15.80;67.90;;;;;;4983094;28;20045;-73
2023/03/31 05:53:12;;;;;;;19.08;4.82;;;;;;;;;;4987448;28;20489;-72
2023/03/31 05:55:39;;;;;;;12.63;4.07;;;;;;;;;;4988303;28;20030;-73
2023/03/31 05:58:05;;;;;;;10.57;4.13;;;;;;;;;;4986622;28;20061;-73
2023/03/31 06:00:31;;;;;;;11.32;4.00;;;;;;;;;;4990684;28;20026;-73
2023/03/31 06:02:58;;;;;;;9.65;4.70;;;;;;;;;;4980403;28;20027;-73
2023/03/31 06:05:25;;;;;;;10.10;3.50;;;15.70;57.60;;;;;;4989995;28;20031;-73
2023/03/31 06:07:52;;;;;;;13.48;3.95;;;16.30;77.80;;;;;;4990296;28;20026;-72
2023/03/31 06:10:19;;;;;;;5.50;4.68;;;15.70;57.70;;;;;;4989723;28;20172;-72
2023/03/31 06:12:45;;;;;;;8.68;3.15;;;;;;;;;;4989813;28;20030;-75
2023/03/31 06:15:11;;;;;;;8.32;3.80;;;16.10;68.60;;;;;;4989219;28;20034;-75
2023/03/31 06:17:36;;;;;;;9.75;3.95;;;16.10;69.70;;;;;;4989438;28;20081;-74
2023/03/31 06:20:04;;;;;;;4.55;3.35;;;;;;;;;;4990001;28;20069;-74
2023/03/31 06:22:30;;;;;;;9.45;3.30;;;;;;;;;;4973932;28;20073;-74
2023/03/31 06:24:56;;;;;;;6.68;3.85;;;;;;;;;;4964116;28;20027;-74
2023/03/31 06:27:22;;;;;;;12.60;3.88;;;;;;;;;;4970963;28;20026;-73
2023/03/31 06:29:49;;;;;;;16.83;4.07;;;;;;;;;;4969567;28;20027;-75
2023/03/31 06:32:14;;;;;;;8.70;3.65;;;15.90;69.30;;;;;;4971222;28;20514;-75
2023/03/31 06:34:40;;;;;;;6.82;2.60;;;;;;;;;;4970244;28;20023;-77
2023/03/31 06:37:06;;;;;;;9.80;3.15;;;;;;;;;;4971027;28;20488;-77
2023/03/31 06:39:32;;;;;;;6.18;3.60;;;;;;;;;;4970138;28;20037;-71
2023/03/31 06:41:58;;;;;;;9.50;3.92;;;;;;;;;;4970568;28;20113;-70
2023/03/31 06:44:24;;;;;;;14.73;3.60;;;;;;;;;;4970101;28;20468;-70
2023/03/31 06:46:50;;;;;;;19.63;4.65;;;;;;;;;;4970577;28;20122;-70
2023/03/31 06:49:16;;;;;;;7.55;4.38;;;;;;;;;;4970351;28;20042;-70
2023/03/31 06:51:42;;;;;;;8.35;4.88;;;;;;;;;;4985361;28;20041;-70
2023/03/31 06:54:08;;;;;;;10.32;4.68;;;;;;;;;;4969660;28;20069;-70
2023/03/31 06:56:34;;;;;;;6.45;3.85;;;;;;;;;;4984310;28;20066;-70
2023/03/31 06:59:00;;;;;;;10.07;4.85;;;;;;;;;;4970429;28;20023;-70
2023/03/31 07:01:26;;;;;;;10.15;4.30;;;;;;;;;;4970203;28;20027;-70
2023/03/31 07:03:52;;;;;;;5.22;3.08;;;;;;;;;;4969613;28;20046;-69
2023/03/31 07:06:18;;;;;;;9.40;5.15;;;;;;;;;;4970129;28;20035;-70
2023/03/31 07:08:44;;;;;;;17.05;7.00;;;;;;;;;;4969917;28;20559;-69
2023/03/31 07:11:11;;;;;;;12.77;4.78;;;;;;;;;;4969388;28;20042;-75
2023/03/31 07:13:37;;;;;;;9.07;5.17;;;;;;;;;;4969969;28;20038;-71
2023/03/31 07:16:03;;;;;;;5.00;2.80;;;;;;;;;;4967374;28;20411;-73
2023/03/31 07:18:33;;;;;;;7.22;2.47;;;17.30;51.60;;;;;;4968968;28;20057;-72
2023/03/31 07:21:00;;;;;;;9.02;3.40;;;;;;;;;;4966277;28;20130;-74
2023/03/31 07:23:26;;;;;;;7.97;2.53;;;;;;;;;;4966518;28;20031;-73
2023/03/31 07:25:52;;;;;;;6.28;3.67;;;;;;;;;;4956451;28;20129;-75
2023/03/31 07:28:23;;;;;;;11.95;3.95;;;;;;;;;;4964429;28;20035;-75
2023/03/31 07:30:48;;;;;;;7.68;3.70;;;17.20;58.70;;;;;;4964897;28;20492;-75
2023/03/31 07:33:14;;;;;;;3.67;1.90;;;;;;;;;;4963671;28;20074;-75
2023/03/31 07:35:41;;;;;;;3.28;2.25;;;17.70;47.30;;;;;;4962453;28;20025;-75
2023/03/31 07:38:08;;;;;;;2.13;1.63;;;17.80;45.60;;;;;;4968081;28;20027;-76
2023/03/31 07:40:34;;;;;;;6.60;1.95;;;17.80;45.00;;;;;;4965447;28;20500;-75
2023/03/31 07:43:00;;;;;;;3.95;1.85;;;;;;;;;;4965132;28;20046;-75
2023/03/31 07:45:26;;;;;;;9.45;3.03;;;18.80;41.00;;;;;;4964486;28;20031;-73
2023/03/31 07:47:52;;;;;;;4.38;2.08;;;19.00;45.80;;;;;;4966889;28;20595;-73
2023/03/31 07:50:18;;;;;;;4.25;1.90;;;;;;;;;;4965916;28;20046;-73
2023/03/31 07:52:44;;;;;;;4.78;2.53;;;;;;;;;;4966410;28;20860;-73
2023/03/31 07:55:10;;;;;;;2.78;1.92;;;;;;;;;;4962267;28;20667;-72
2023/03/31 07:57:37;;;;;;;3.40;2.22;;;24.20;33.50;;;;;;4967111;28;20524;-73
2023/03/31 08:00:08;;;;;;;4.32;2.83;;;30.10;29.70;;;;;;4962526;28;20490;-73
2023/03/31 08:02:34;;;;;;;5.32;2.90;;;35.50;30.90;;;;;;4966834;28;20097;-74
2023/03/31 08:05:01;;;;;;;3.17;2.60;;;;;;;;;;4963492;28;20026;-84
2023/03/31 08:07:29;;;;;;;3.07;2.07;;;;;;;;;;4964351;28;20023;-75
2023/03/31 08:09:56;;;;;;;7.95;2.53;;;42.40;23.60;;;;;;4965679;28;20121;-82
2023/03/31 08:12:22;;;;;;;4.00;2.17;;;;;;;;;;4966544;28;20043;-75
2023/03/31 08:14:48;;;;;;;2.25;1.52;;;;;;;;;;4963900;28;20015;-78
2023/03/31 08:17:14;;;;;;;4.60;2.70;;;;;;;;;;4957803;28;20409;-76
2023/03/31 08:19:40;;;;;;;;;;;40.90;22.90;;;;;;4965482;28;20030;-75
2023/03/31 08:22:06;;;;;;;1.65;0.82;;;41.20;29.90;;;;;;4967456;28;19965;-77
2023/03/31 08:24:31;;;;;;;6.75;1.83;;;41.90;29.20;;;;;;4966194;28;20117;-76
2023/03/31 08:26:57;;;;;;;4.50;1.00;;;;;;;;;;4961977;28;20511;-75
2023/03/31 08:29:23;;;;;;;4.65;1.13;;;42.50;25.60;;;;;;4965080;28;20034;-76
2023/03/31 08:31:49;;;;;;;3.42;1.10;;;;;;;;;;4965219;28;20038;-78
2023/03/31 08:34:14;;;;;;;;;;;42.70;21.00;;;;;;4967196;28;20027;-77
2023/03/31 08:36:40;;;;;;;3.05;1.30;;;;;;;;;;4960793;28;19982;-81
2023/03/31 08:39:06;;;;;;;1.58;0.73;;;;;;;;;;4965763;28;20041;-77
2023/03/31 08:41:38;;;;;;;;;;;41.80;21.70;;;;;;4966291;28;20738;-74
2023/03/31 08:44:29;;;;;;;4.93;0.88;;;38.50;21.40;;;;;;4967396;28;20431;-77
2023/03/31 08:46:57;;;;;;;4.78;1.40;;;34.80;22.90;;;;;;4959281;28;20039;-76
2023/03/31 08:49:25;;;;;;;3.92;1.55;;;39.10;27.50;;;;;;4966492;28;20404;-73
2023/03/31 08:52:04;;;;;;;4.72;1.80;;;36.50;24.00;;;;;;4965254;28;20019;-73
2023/03/31 08:54:42;;;;;;;8.40;1.23;;;35.30;32.10;;;;;;4966673;28;20026;-73
2023/03/31 08:57:26;;;;;;;3.15;1.25;;;37.30;22.50;;;;;;4961943;28;20042;-73
2023/03/31 08:59:57;;;;;;;4.70;1.60;;;;;;;;;;4961575;28;20022;-73
2023/03/31 09:02:41;;;;;;;4.43;1.55;;;44.20;21.50;;;;;;4966081;28;20034;-72
2023/03/31 09:05:21;;;;;;;3.80;1.95;;;46.00;20.90;;;;;;4958886;28;20034;-72
2023/03/31 09:08:16;;;;;;;3.65;1.58;;;46.60;20.30;;;;;;4970176;28;20050;-72
2023/03/31 09:11:25;;;;;;;1.48;1.17;;;47.40;19.80;;;;;;4966695;28;20166;-71
2023/03/31 09:13:59;;;;;;;3.80;1.30;;;;;;;;;;4970843;28;20031;-73
2023/03/31 09:16:37;;;;;;;2.35;1.30;;;46.30;26.70;;;;;;4981921;28;20455;-73
2023/03/31 09:19:17;;;;;;;3.95;1.50;;;47.90;19.40;;;;;;4965739;28;20031;-76
2023/03/31 09:21:46;;;;;;;9.18;2.85;;;44.70;18.70;;;;;;4970942;28;20035;-73
2023/03/31 09:24:31;;;;;;;3.75;1.02;;;45.80;19.10;;;;;;4964372;28;20093;-73
2023/03/31 09:27:04;;;;;;;5.35;1.73;;;40.80;20.10;;;;;;4965964;28;20595;-72
2023/03/31 09:29:38;;;;;;;2.75;1.50;;;42.70;28.30;;;;;;4969560;28;20030;-73
2023/03/31 09:32:16;;;;;;;4.53;2.08;;;42.70;20.10;;;;;;5000906;28;20035;-72
2023/03/31 09:34:43;;;;;;;2.20;1.30;;;42.70;27.20;;;;;;4971064;28;20792;-73
2023/03/31 09:37:10;;;;;;;2.85;1.30;;;43.20;26.80;;;;;;4966911;28;20023;-74
2023/03/31 09:39:37;;;;;;;5.13;1.75;;;43.20;19.70;;;;;;4968957;28;20038;-73
2023/03/31 09:42:03;;;;;;;3.65;1.45;;;;;;;;;;4964193;28;20162;-73
2023/03/31 09:44:44;;;;;;;2.22;1.00;;;42.50;25.00;;;;;;4970836;28;20057;-75
2023/03/31 09:47:20;;;;;;;4.68;0.90;;;43.80;19.70;;;;;;4965365;28;20054;-75
2023/03/31 09:49:46;;;;;;;;;;;43.10;19.90;;;;;;4970549;28;20879;-74
2023/03/31 09:52:20;;;;;;;4.75;1.40;;;33.90;21.80;;;;;;4969503;28;19914;-73
2023/03/31 09:54:50;;;;;;;4.75;1.48;;;35.10;23.00;;;;;;4964685;28;20027;-74
2023/03/31 09:57:32;;;;;;;2.50;1.60;;;36.20;22.40;;;;;;4966890;28;20038;-74
2023/03/31 10:00:18;;;;;;;4.75;1.27;;;39.80;21.40;;;;;;4969773;28;20471;-74
2023/03/31 10:02:49;;;;;;;4.45;1.23;;;37.70;20.00;;;;;;4969032;28;20026;-74
2023/03/31 10:05:35;;;;;;;4.30;1.67;;;39.90;28.70;;;;;;4967854;28;20803;-73
2023/03/31 10:08:16;;;;;;;4.30;1.27;;;42.00;19.90;;;;;;4969538;28;20078;-73
2023/03/31 10:10:48;;;;;;;5.00;1.73;;;43.40;19.60;;;;;;4968559;28;20042;-73
2023/03/31 10:13:17;;;;;;;4.68;1.73;;;44.80;19.30;;;;;;4968025;28;20125;-73
2023/03/31 10:15:43;;;;;;;5.40;1.20;;;43.10;22.60;;;;;;4965825;28;20022;-74
2023/03/31 10:18:16;;;;;;;;;;;42.10;19.10;;;;;;4969671;28;20037;-75
2023/03/31 10:20:50;;;;;;;8.50;2.38;;;43.60;19.00;;;;;;4969997;28;20455;-75
2023/03/31 10:23:33;;;;;;;7.50;1.25;;;43.70;19.00;;;;;;4968077;28;20089;-75
2023/03/31 10:26:02;;;;;;;2.90;1.30;;;42.30;23.40;;;;;;4965786;28;20035;-76
2023/03/31 10:28:33;;;;;;;5.55;1.05;;;41.20;19.60;;;;;;4976237;28;20039;-75
2023/03/31 10:31:00;;;;;;;6.05;0.60;;;36.80;22.20;;;;;;4968589;28;20050;-75
2023/03/31 10:33:28;;;;;;;6.32;1.00;;;37.20;20.30;;;;;;4967035;28;20432;-75
2023/03/31 10:35:59;;;;;;;7.07;1.02;;;33.80;21.90;;;;;;4966484;28;20096;-73
2023/03/31 10:38:36;;;;;;;6.57;2.63;;;35.00;23.00;;;;;;4968642;28;20049;-74
2023/03/31 10:41:02;;;;;;;5.93;1.00;;;;;;;;;;4969545;28;20502;-73
2023/03/31 10:43:42;;;;;;;8.98;1.73;;;39.30;20.70;;;;;;4968064;28;20488;-74
2023/03/31 10:46:09;;;;;;;5.15;0.90;;;40.10;24.60;;;;;;4965094;28;20586;-74
2023/03/31 10:48:38;;;;;;;;;;;39.70;20.00;;;;;;4968822;28;20035;-74
2023/03/31 10:51:17;;;;;;;9.77;2.25;;;42.40;19.60;;;;;;4969261;28;20004;-74
2023/03/31 10:53:48;;;;;;;3.67;1.50;;;42.50;26.60;;;;;;4966265;28;20110;-74
2023/03/31 10:56:34;;;;;;;8.27;1.13;;;43.10;22.30;;;;;;4965018;28;20039;-75
2023/03/31 10:59:13;;;;;;;5.05;1.63;;;42.70;18.60;;;;;;4968126;28;20029;-74
2023/03/31 11:01:54;;;;;;;3.35;1.45;;;40.00;28.20;;;;;;4964441;28;20034;-73
2023/03/31 11:04:38;;;;;;;3.58;1.42;;;40.00;19.50;;;;;;4969062;28;20650;-74
2023/03/31 11:07:11;;;;;;;3.42;0.93;;;40.70;27.20;;;;;;4963675;28;20503;-73
2023/03/31 11:09:37;;;;;;;3.67;1.17;;;;;;;;;;4968406;28;20038;-74
2023/03/31 11:12:03;;;;;;;3.80;1.70;;;;;;;;;;4968707;28;20050;-73
2023/03/31 11:14:45;;;;;;;4.15;1.10;;;40.00;20.60;;;;;;4968231;28;20030;-74
2023/03/31 11:17:29;;;;;;;4.90;1.60;;;40.20;19.50;;;;;;4965404;28;20042;-73
2023/03/31 11:20:06;;;;;;;3.53;1.27;;;39.00;20.60;;;;;;4968266;28;20038;-73
2023/03/31 11:22:51;;;;;;;7.28;1.52;;;38.70;20.20;;;;;;4967266;28;20147;-74
2023/03/31 11:25:28;;;;;;;4.70;1.42;;;37.20;21.50;;;;;;4966093;28;20070;-74
2023/03/31 11:28:16;;;;;;;9.43;2.13;;;36.60;20.30;;;;;;4967476;28;20451;-74
2023/03/31 11:30:50;;;;;;;4.53;1.63;;;38.90;20.10;;;;;;4966417;28;20050;-74
2023/03/31 11:33:48;;;;;;;3.15;1.40;;;40.10;19.80;;;;;;4967714;28;20037;-74
2023/03/31 11:36:40;;;;;;;5.93;1.67;;;40.50;19.70;;;;;;4964232;28;20042;-73
2023/03/31 11:39:24;;;;;;;6.07;1.23;;;37.50;20.20;;;;;;4967221;28;20041;-74
2023/03/31 11:41:54;;;;;;;3.28;0.90;;;35.30;21.00;;;;;;4962649;28;20051;-74
2023/03/31 11:44:23;;;;;;;5.45;1.88;;;31.90;22.60;;;;;;4966811;28;20031;-73
2023/03/31 11:46:58;;;;;;;1.60;0.93;;;30.20;29.40;;;;;;4964254;28;20816;-74
2023/03/31 11:49:27;;;;;;;5.18;1.50;;;28.60;32.20;;;;;;4981686;28;20023;-73
2023/03/31 11:52:01;;;;;;;3.72;1.00;;;26.30;35.20;;;;;;4967595;28;20062;-73
2023/03/31 11:54:35;;;;;;;4.85;1.70;;;24.60;27.50;;;;;;4967030;28;20834;-73
2023/03/31 11:57:10;;;;;;;3.75;1.55;;;23.40;28.60;;;;;;4964802;28;20046;-77
2023/03/31 11:59:38;;;;;;;2.17;1.33;;;23.00;29.80;;;;;;4966091;28;20026;-77
2023/03/31 12:02:18;;;;;;;6.50;1.23;;;23.00;30.00;;;;;;4963672;28;20129;-78
2023/03/31 12:04:50;;;;;;;6.38;1.48;;;25.60;29.30;;;;;;4966850;28;20022;-77
2023/03/31 12:07:18;;;;;;;1.73;1.13;;;27.00;27.10;;;;;;4964939;28;20030;-74
2023/03/31 12:10:14;;;;;;;1.75;0.70;;;26.80;38.10;;;;;;4967171;28;20034;-73
2023/03/31 12:12:55;;;;;;;4.70;1.07;;;28.40;26.60;;;;;;4966904;28;20027;-75
2023/03/31 12:15:30;;;;;;;3.67;0.70;;;28.80;26.00;;;;;;4964842;28;20038;-74
2023/03/31 12:18:07;;;;;;;2.30;0.93;;;29.00;27.00;;;;;;4967470;28;20564;-75
2023/03/31 12:20:39;;;;;;;4.60;0.63;;;28.40;26.80;;;;;;4965044;28;20550;-76
2023/03/31 12:23:12;;;;;;;3.65;0.85;;;27.90;26.70;;;;;;4966551;28;20106;-75
2023/03/31 12:25:51;;;;;;;4.78;0.75;;;27.30;27.40;;;;;;4963884;28;20082;-72
2023/03/31 12:28:18;;;;;;;1.77;0.98;;;;;;;;;;4965337;28;20027;-72
2023/03/31 12:30:46;;;;;;;1.10;0.50;;;25.50;29.50;;;;;;4966530;28;20042;-72
2023/03/31 12:33:18;;;;;;;3.90;0.70;;;25.50;28.40;;;;;;4966484;28;20038;-72
2023/03/31 12:36:09;;;;;;;4.70;0.80;;;25.70;41.60;;;;;;4963297;28;20062;-74
2023/03/31 12:39:05;;;;;;;3.30;1.00;;;26.40;33.20;;;;;;4966164;28;20045;-74
2023/03/31 12:42:15;;;;;;;3.38;0.63;;;26.00;44.40;;;;;;4967384;28;20026;-74
2023/03/31 12:45:18;;;;;;;4.10;1.38;;;25.30;29.00;;;;;;4986991;28;20626;-74
2023/03/31 12:48:17;;;;;;;0.90;0.80;;;24.90;29.60;;;;;;4985503;28;20736;-71
2023/03/31 12:51:03;;;;;;;2.38;0.70;;;24.80;29.70;;;;;;4987020;28;20038;-73
2023/03/31 12:53:55;;;;;;;2.28;0.60;;;24.50;29.00;;;;;;4987138;28;20038;-74
2023/03/31 12:56:21;;;;;;;7.18;1.33;;;;;;;;;;4983929;28;20065;-74
2023/03/31 12:58:47;;;;;;;0.98;0.50;;;;;;;;;;4986524;28;20080;-74
2023/03/31 13:01:20;;;;;;;2.58;1.00;;;24.80;29.10;;;;;;4987726;28;20038;-74
2023/03/31 13:03:51;;;;;;;2.58;0.50;;;24.40;45.60;;;;;;4987003;28;20038;-75
2023/03/31 13:06:29;;;;;;;2.38;0.70;;;23.80;45.80;;;;;;4983776;28;20031;-74
2023/03/31 13:09:03;;;;;;;4.00;0.85;;;23.00;30.00;;;;;;4985985;28;20077;-75
2023/03/31 13:11:37;;;;;;;5.47;0.98;;;23.00;30.60;;;;;;4982687;28;20042;-76
2023/03/31 13:14:20;;;;;;;1.30;0.80;;;23.10;30.40;;;;;;4986650;28;20080;-75
2023/03/31 13:16:47;;;;;;;2.03;0.98;;;22.50;31.30;;;;;;4983870;28;20031;-74
2023/03/31 13:19:28;;;;;;;;;;;22.70;31.90;;;;;;4986171;28;20876;-74
2023/03/31 13:21:56;;;;;;;5.38;1.40;;;22.30;39.30;;;;;;4968673;28;20382;-75
2023/03/31 13:24:24;;;;;;;1.63;0.80;;;22.20;41.60;;;;;;4970024;28;20034;-74
2023/03/31 13:26:52;;;;;;;1.50;0.77;;;22.90;49.40;;;;;;4966392;28;20027;-74
2023/03/31 13:29:23;;;;;;;2.25;0.82;;;22.50;32.20;;;;;;4969792;28;20499;-74
2023/03/31 13:32:06;;;;;;;5.60;1.27;;;22.20;33.10;;;;;;4969109;28;20132;-75
2023/03/31 13:34:51;;;;;;;1.95;0.90;;;22.30;43.50;;;;;;4969620;28;20037;-74
2023/03/31 13:37:29;;;;;;;1.67;1.20;;;23.00;41.50;;;;;;4968809;28;20093;-75
2023/03/31 13:40:32;;;;;;;1.65;0.98;;;23.30;46.30;;;;;;4969338;28;20500;-74
2023/03/31 13:42:58;;;;;;;2.58;0.90;;;;;;;;;;4969799;28;20030;-75
2023/03/31 13:45:24;;;;;;;4.25;0.80;;;;;;;;;;4967046;28;20514;-75
2023/03/31 13:48:00;;;;;;;0.93;0.77;;;22.50;33.00;;;;;;4968803;28;20058;-75